Time;durP1;ratioP1;P1;durP2;ratioP2;P2;SDS_P1;SDS_P2;PMS_P1;PMS_P2;Temp;Humidity;BMP_temperature;BMP_pressure;BME280_temperature;BME280_humidity;BME280_pressure;Samples;Min_cycle;Max_cycle;Signal;HPM_P1;HPM_P2
2022/11/25 00:01:28;;;;;;;20.90;3.85;;;6.80;99.90;;;;;;5001470;28;20103;-67
2022/11/25 00:03:55;;;;;;;16.70;3.72;;;6.80;99.90;;;;;;4995715;28;20034;-67
2022/11/25 00:06:23;;;;;;;15.63;4.85;;;6.80;99.90;;;;;;5000212;28;20088;-66
2022/11/25 00:08:55;;;;;;;16.40;3.70;;;6.80;99.90;;;;;;4997839;28;20528;-67
2022/11/25 00:11:21;;;;;;;12.23;3.30;;;6.80;99.90;;;;;;5004063;28;20034;-66
2022/11/25 00:13:47;;;;;;;17.85;4.35;;;6.80;99.90;;;;;;5000155;28;20516;-67
2022/11/25 00:16:18;;;;;;;10.77;3.25;;;6.80;99.90;;;;;;5002302;28;20038;-66
2022/11/25 00:18:44;;;;;;;;;;;6.80;99.90;;;;;;4977177;28;20034;-66
2022/11/25 00:21:12;;;;;;;15.65;4.38;;;6.80;99.90;;;;;;5002588;28;19917;-67
2022/11/25 00:23:38;;;;;;;13.48;4.43;;;6.80;99.90;;;;;;4999252;28;20042;-66
2022/11/25 00:26:09;;;;;;;17.40;3.63;;;6.80;99.90;;;;;;5001585;28;20872;-67
2022/11/25 00:28:35;;;;;;;14.60;3.70;;;6.80;99.90;;;;;;5000143;28;20049;-66
2022/11/25 00:31:14;;;;;;;11.70;3.95;;;6.70;99.90;;;;;;5019508;28;20492;-66
2022/11/25 00:33:40;;;;;;;15.20;3.60;;;6.70;99.90;;;;;;4980819;28;20070;-66
2022/11/25 00:36:14;;;;;;;20.42;4.55;;;6.70;99.90;;;;;;4997710;28;20107;-66
2022/11/25 00:38:40;;;;;;;13.48;4.30;;;6.70;99.90;;;;;;5011342;28;20033;-66
2022/11/25 00:46:33;;;;;;;13.85;3.70;;;6.70;99.90;;;;;;4998848;28;20041;-66
2022/11/25 00:48:59;;;;;;;15.43;3.47;;;6.70;99.90;;;;;;4995387;28;20128;-66
2022/11/25 00:51:24;;;;;;;12.60;4.47;;;6.70;99.90;;;;;;4993413;28;20034;-66
2022/11/25 00:53:50;;;;;;;14.02;4.20;;;6.70;99.90;;;;;;4998441;28;20084;-67
2022/11/25 00:56:16;;;;;;;15.23;3.53;;;6.70;99.90;;;;;;5003803;28;20046;-66
2022/11/25 00:58:43;;;;;;;11.20;3.90;;;6.80;99.90;;;;;;4995421;28;20034;-67
2022/11/25 01:01:09;;;;;;;16.35;4.40;;;6.70;99.90;;;;;;4999549;28;20548;-67
2022/11/25 01:03:36;;;;;;;17.30;4.80;;;6.70;99.90;;;;;;4992446;28;20103;-67
2022/11/25 01:06:07;;;;;;;15.10;4.43;;;6.70;99.90;;;;;;4997458;28;22293;-67
2022/11/25 01:08:34;;;;;;;14.88;4.07;;;6.70;99.90;;;;;;5001236;28;20397;-67
2022/11/25 01:11:00;;;;;;;13.05;3.97;;;6.70;99.90;;;;;;4995937;28;20053;-67
2022/11/25 01:13:26;;;;;;;18.17;4.15;;;6.70;99.90;;;;;;5001119;28;20054;-68
2022/11/25 01:15:52;;;;;;;18.85;3.90;;;6.70;99.90;;;;;;5001287;28;20050;-67
2022/11/25 01:18:18;;;;;;;16.88;4.85;;;6.70;99.90;;;;;;4997166;28;20037;-68
2022/11/25 01:20:43;;;;;;;16.60;4.45;;;6.60;99.90;;;;;;5003300;28;20474;-67
2022/11/25 01:23:09;;;;;;;18.35;4.40;;;6.60;99.90;;;;;;5008100;28;20145;-67
2022/11/25 01:25:38;;;;;;;13.95;4.13;;;6.60;99.90;;;;;;5005719;28;20119;-67
2022/11/25 01:28:04;;;;;;;17.83;4.65;;;6.60;99.90;;;;;;5016984;28;20057;-66
2022/11/25 01:30:30;;;;;;;16.42;3.83;;;6.50;99.90;;;;;;5002731;28;20049;-67
2022/11/25 01:32:56;;;;;;;18.45;4.07;;;6.50;99.90;;;;;;5000045;28;20041;-67
2022/11/25 01:35:21;;;;;;;13.15;3.83;;;6.50;99.90;;;;;;4998423;28;20034;-67
2022/11/25 01:37:47;;;;;;;15.77;3.97;;;6.50;99.90;;;;;;5000981;28;20056;-66
2022/11/25 01:40:13;;;;;;;16.55;4.28;;;6.50;99.90;;;;;;4998618;28;20038;-68
2022/11/25 01:42:46;;;;;;;13.30;3.92;;;6.50;99.90;;;;;;4994132;28;20390;-66
2022/11/25 01:45:35;;;;;;;16.05;4.40;;;6.50;99.90;;;;;;5000478;28;20057;-67
2022/11/25 01:48:13;;;;;;;11.45;3.90;;;6.50;99.90;;;;;;5013579;28;20156;-66
2022/11/25 01:50:41;;;;;;;16.13;4.30;;;6.40;99.90;;;;;;4998910;28;20053;-66
2022/11/25 01:53:09;;;;;;;16.67;4.00;;;6.40;99.90;;;;;;4993995;28;20080;-67
2022/11/25 01:55:38;;;;;;;10.73;3.60;;;6.40;99.90;;;;;;5005753;28;20034;-67
2022/11/25 01:58:12;;;;;;;14.95;3.97;;;6.40;99.90;;;;;;5000130;28;20045;-67
2022/11/25 02:00:38;;;;;;;14.90;4.95;;;6.40;99.90;;;;;;4996434;28;20041;-67
2022/11/25 02:03:05;;;;;;;17.23;4.53;;;6.50;99.90;;;;;;4998270;28;20046;-67
2022/11/25 02:05:51;;;;;;;17.98;4.15;;;6.50;99.90;;;;;;5004688;28;20132;-67
2022/11/25 02:08:18;;;;;;;17.20;4.18;;;6.50;99.90;;;;;;4999459;28;20030;-69
2022/11/25 02:10:45;;;;;;;12.68;3.72;;;6.50;99.90;;;;;;5012094;28;20058;-70
2022/11/25 02:13:11;;;;;;;22.23;3.90;;;6.60;99.90;;;;;;5000315;28;20492;-68
2022/11/25 02:15:36;;;;;;;18.25;4.57;;;6.50;99.90;;;;;;5000986;28;20128;-68
2022/11/25 02:18:03;;;;;;;16.75;4.05;;;6.50;99.90;;;;;;4994163;28;20038;-70
2022/11/25 02:20:28;;;;;;;16.90;4.15;;;6.50;99.90;;;;;;4995031;28;20041;-69
2022/11/25 02:23:13;;;;;;;18.60;4.70;;;6.50;99.90;;;;;;4998173;28;20048;-69
2022/11/25 02:25:40;;;;;;;18.55;5.20;;;6.60;99.90;;;;;;5003606;28;20053;-70
2022/11/25 02:28:29;;;;;;;16.95;4.15;;;6.50;99.90;;;;;;5002269;28;20057;-69
2022/11/25 02:30:55;;;;;;;17.83;4.28;;;6.60;99.90;;;;;;4986551;28;20034;-70
2022/11/25 02:33:20;;;;;;;20.15;4.97;;;6.60;99.90;;;;;;5006866;28;20087;-70
2022/11/25 02:35:50;;;;;;;19.35;5.00;;;6.60;99.90;;;;;;5004471;28;20042;-71
2022/11/25 02:38:36;;;;;;;14.47;4.37;;;6.60;99.90;;;;;;5000698;28;20048;-71
2022/11/25 02:41:12;;;;;;;15.80;4.55;;;6.60;99.90;;;;;;5005930;28;20052;-72
2022/11/25 02:43:38;;;;;;;14.88;4.38;;;6.60;99.90;;;;;;5021609;28;20069;-70
2022/11/25 02:46:07;;;;;;;20.25;4.57;;;6.60;99.90;;;;;;5005166;28;20116;-73
2022/11/25 02:48:35;;;;;;;20.73;4.80;;;6.60;99.90;;;;;;4989853;28;20038;-71
2022/11/25 02:51:01;;;;;;;22.05;6.03;;;6.60;99.90;;;;;;5006239;28;20053;-70
2022/11/25 02:53:27;;;;;;;20.30;4.85;;;6.60;99.90;;;;;;5006930;28;20085;-71
2022/11/25 02:55:53;;;;;;;22.85;5.75;;;6.70;99.90;;;;;;5004921;28;20421;-71
2022/11/25 02:58:18;;;;;;;21.25;5.63;;;6.60;99.90;;;;;;5002986;28;20072;-71
2022/11/25 03:00:46;;;;;;;21.10;5.00;;;6.70;99.90;;;;;;5005425;28;20033;-71
2022/11/25 03:03:12;;;;;;;24.50;4.78;;;6.70;99.90;;;;;;5003197;28;20061;-72
2022/11/25 03:05:37;;;;;;;17.00;4.70;;;6.70;99.90;;;;;;5003269;28;20037;-72
2022/11/25 03:08:04;;;;;;;21.65;5.63;;;6.70;99.90;;;;;;4990817;28;20034;-71
2022/11/25 03:10:29;;;;;;;22.75;5.63;;;6.70;99.90;;;;;;4989149;28;20041;-71
2022/11/25 03:12:55;;;;;;;21.17;5.15;;;6.80;99.90;;;;;;5016245;28;20148;-72
2022/11/25 03:15:21;;;;;;;30.52;5.07;;;6.80;99.90;;;;;;4999925;28;20038;-72
2022/11/25 03:17:47;;;;;;;20.92;5.53;;;6.80;99.90;;;;;;4987909;28;20370;-73
2022/11/25 03:20:14;;;;;;;19.52;5.47;;;6.80;99.90;;;;;;5003730;28;20072;-73
2022/11/25 03:22:40;;;;;;;19.45;6.03;;;6.90;99.90;;;;;;5005057;28;20044;-71
2022/11/25 03:25:06;;;;;;;20.20;5.68;;;6.90;99.90;;;;;;5002694;28;20383;-74
2022/11/25 03:27:35;;;;;;;25.45;5.55;;;6.90;99.90;;;;;;5003473;28;20045;-74
2022/11/25 03:30:01;;;;;;;22.38;6.03;;;6.90;99.90;;;;;;5023277;28;20037;-71
2022/11/25 03:32:27;;;;;;;18.08;5.85;;;6.90;99.90;;;;;;4986716;28;20413;-74
2022/11/25 03:34:52;;;;;;;26.38;6.10;;;6.90;99.90;;;;;;5000752;28;20125;-70
2022/11/25 03:37:18;;;;;;;28.45;6.50;;;6.90;99.90;;;;;;5003914;28;20288;-71
2022/11/25 03:39:44;;;;;;;22.42;6.07;;;7.00;99.90;;;;;;4984080;28;20466;-74
2022/11/25 03:42:10;;;;;;;24.95;7.05;;;7.00;99.90;;;;;;5005839;28;20124;-69
2022/11/25 03:44:36;;;;;;;26.65;6.55;;;6.90;99.90;;;;;;5002621;28;20489;-72
2022/11/25 03:47:02;;;;;;;20.75;5.88;;;7.00;99.90;;;;;;5000449;28;20049;-72
2022/11/25 03:49:27;;;;;;;27.92;7.30;;;7.00;99.90;;;;;;5014554;28;20085;-73
2022/11/25 03:51:53;;;;;;;25.50;7.03;;;6.90;99.90;;;;;;4992794;28;20088;-71
2022/11/25 03:54:18;;;;;;;24.13;6.75;;;7.00;99.90;;;;;;5020774;28;20494;-72
2022/11/25 03:56:44;;;;;;;20.88;6.32;;;7.10;99.90;;;;;;4998004;28;20043;-71
2022/11/25 03:59:10;;;;;;;21.88;6.88;;;7.00;99.90;;;;;;5002092;28;20074;-72
2022/11/25 04:01:36;;;;;;;22.58;7.03;;;7.00;99.90;;;;;;5003329;28;20078;-73
2022/11/25 04:04:02;;;;;;;24.85;6.88;;;7.00;99.90;;;;;;4988685;28;20041;-71
2022/11/25 04:06:28;;;;;;;23.55;7.22;;;7.00;99.90;;;;;;5003423;28;20042;-73
2022/11/25 04:08:53;;;;;;;18.88;6.72;;;7.10;99.90;;;;;;5005697;28;20092;-73
2022/11/25 04:11:19;;;;;;;24.05;7.30;;;7.00;99.90;;;;;;4985911;28;20044;-72
2022/11/25 04:13:44;;;;;;;22.38;6.53;;;7.00;99.90;;;;;;4982680;28;20048;-73
2022/11/25 04:16:22;;;;;;;21.42;7.35;;;7.10;99.90;;;;;;4987053;28;20069;-71
2022/11/25 04:18:48;;;;;;;19.48;7.63;;;7.10;99.90;;;;;;5001620;28;20073;-73
2022/11/25 04:21:13;;;;;;;24.20;7.28;;;7.10;99.90;;;;;;5003030;28;20143;-72
2022/11/25 04:23:39;;;;;;;27.63;7.40;;;7.10;99.90;;;;;;4993677;28;20152;-71
2022/11/25 04:26:04;;;;;;;32.67;7.50;;;7.00;99.90;;;;;;5001465;28;20702;-73
2022/11/25 04:28:30;;;;;;;24.88;7.45;;;7.10;99.90;;;;;;5000916;28;20030;-72
2022/11/25 04:30:55;;;;;;;25.80;7.35;;;7.10;99.90;;;;;;4986645;28;20042;-70
2022/11/25 04:33:21;;;;;;;23.02;7.80;;;7.10;99.90;;;;;;4992289;28;20485;-71
2022/11/25 04:35:47;;;;;;;23.60;7.65;;;7.10;99.90;;;;;;4996836;28;20555;-73
2022/11/25 04:38:12;;;;;;;20.17;7.40;;;7.20;99.90;;;;;;4992515;28;22828;-74
2022/11/25 04:40:38;;;;;;;23.20;7.57;;;7.20;99.90;;;;;;4996822;28;20428;-74
2022/11/25 04:43:03;;;;;;;29.15;7.60;;;7.20;99.90;;;;;;4998915;28;20038;-73
2022/11/25 04:45:29;;;;;;;30.88;7.50;;;7.10;99.90;;;;;;4980300;28;20054;-70
2022/11/25 04:47:54;;;;;;;24.50;7.35;;;7.10;99.90;;;;;;4994925;28;20038;-72
2022/11/25 04:50:22;;;;;;;24.50;8.25;;;7.10;99.90;;;;;;4996305;28;20089;-69
2022/11/25 04:52:48;;;;;;;23.27;7.80;;;7.10;99.90;;;;;;4993822;28;20697;-70
2022/11/25 04:55:13;;;;;;;21.58;6.78;;;7.20;99.90;;;;;;5003052;28;20082;-70
2022/11/25 04:57:39;;;;;;;25.77;8.02;;;7.20;99.90;;;;;;5003781;28;20483;-70
2022/11/25 05:00:06;;;;;;;29.88;7.50;;;7.20;99.90;;;;;;4998098;28;20093;-73
2022/11/25 05:02:32;;;;;;;21.73;7.55;;;7.20;99.90;;;;;;5003636;28;20072;-70
2022/11/25 05:04:57;;;;;;;22.48;7.65;;;7.10;99.90;;;;;;4999743;28;20046;-72
2022/11/25 05:07:25;;;;;;;30.90;8.48;;;7.20;99.90;;;;;;5025621;28;20451;-72
2022/11/25 05:09:51;;;;;;;32.05;8.40;;;7.20;99.90;;;;;;5004980;28;20042;-73
2022/11/25 05:12:19;;;;;;;26.63;8.75;;;7.20;99.90;;;;;;4987706;28;20052;-70
2022/11/25 05:14:45;;;;;;;25.60;8.00;;;7.10;99.90;;;;;;5001967;28;20048;-73
2022/11/25 05:17:19;;;;;;;27.42;7.90;;;7.10;99.90;;;;;;5001559;28;20050;-72
2022/11/25 05:19:45;;;;;;;22.30;7.28;;;7.10;99.90;;;;;;5000741;28;20038;-71
2022/11/25 05:22:13;;;;;;;22.20;7.53;;;7.10;99.90;;;;;;4988239;28;20496;-70
2022/11/25 05:24:38;;;;;;;25.77;7.90;;;7.10;99.90;;;;;;5003140;28;20056;-69
2022/11/25 05:27:05;;;;;;;25.73;8.23;;;7.10;99.90;;;;;;4999540;28;20506;-71
2022/11/25 05:29:31;;;;;;;29.85;8.35;;;7.10;99.90;;;;;;4993586;28;20042;-73
2022/11/25 05:31:56;;;;;;;27.98;8.57;;;7.10;99.90;;;;;;5005153;28;20550;-68
2022/11/25 05:34:22;;;;;;;28.15;8.93;;;7.20;99.90;;;;;;4988147;28;20030;-69
2022/11/25 05:36:48;;;;;;;24.75;8.95;;;7.10;99.90;;;;;;5007599;28;20095;-72
2022/11/25 05:39:13;;;;;;;27.27;9.38;;;7.20;99.90;;;;;;5002304;28;20601;-69
2022/11/25 05:41:39;;;;;;;24.50;9.05;;;7.20;99.90;;;;;;5006224;28;20042;-70
2022/11/25 05:44:04;;;;;;;32.83;9.52;;;7.30;99.90;;;;;;4997419;28;20186;-71
2022/11/25 05:46:31;;;;;;;29.63;9.18;;;7.30;99.90;;;;;;5000585;28;20033;-69
2022/11/25 05:48:57;;;;;;;28.80;9.48;;;7.40;99.90;;;;;;5018897;28;20082;-73
2022/11/25 05:51:24;;;;;;;29.42;9.63;;;7.40;99.90;;;;;;5002548;28;20080;-71
2022/11/25 05:53:50;;;;;;;28.58;9.35;;;7.30;99.90;;;;;;4996378;28;20092;-70
2022/11/25 05:56:16;;;;;;;40.03;10.85;;;7.40;99.90;;;;;;4994997;28;20441;-70
2022/11/25 05:58:42;;;;;;;31.95;10.30;;;7.40;99.90;;;;;;4996531;28;20030;-69
2022/11/25 06:01:10;;;;;;;29.40;9.20;;;7.40;99.90;;;;;;4994605;28;20112;-72
2022/11/25 06:03:36;;;;;;;35.38;10.30;;;7.30;99.90;;;;;;4996122;28;20069;-70
2022/11/25 06:06:02;;;;;;;28.73;9.52;;;7.40;99.90;;;;;;5017503;28;20044;-68
2022/11/25 06:08:28;;;;;;;29.10;10.38;;;7.40;99.90;;;;;;4985435;28;20136;-71
2022/11/25 06:10:54;;;;;;;33.42;10.50;;;7.50;99.90;;;;;;5000330;28;20129;-70
2022/11/25 06:13:20;;;;;;;27.30;10.70;;;7.40;99.90;;;;;;4998970;28;20046;-72
2022/11/25 06:15:46;;;;;;;25.65;10.93;;;7.50;99.90;;;;;;5004266;28;20123;-73
2022/11/25 06:18:13;;;;;;;32.95;11.15;;;7.50;99.90;;;;;;4998908;28;20046;-70
2022/11/25 06:20:39;;;;;;;27.15;10.48;;;7.60;99.90;;;;;;4998919;28;20053;-68
2022/11/25 06:23:06;;;;;;;30.30;10.75;;;7.60;99.90;;;;;;5012612;28;20449;-70
2022/11/25 06:25:31;;;;;;;31.40;10.63;;;7.60;99.90;;;;;;5001238;28;20508;-73
2022/11/25 06:27:58;;;;;;;38.55;11.35;;;7.60;99.90;;;;;;4997873;28;20046;-74
2022/11/25 06:30:23;;;;;;;32.70;11.75;;;7.60;99.90;;;;;;4997474;28;20048;-68
2022/11/25 06:32:49;;;;;;;33.33;11.13;;;7.60;99.90;;;;;;4995776;28;20042;-70
2022/11/25 06:35:15;;;;;;;29.88;10.45;;;7.60;99.90;;;;;;5004206;28;20079;-69
2022/11/25 06:37:40;;;;;;;32.65;11.25;;;7.50;99.90;;;;;;4999000;28;20038;-70
2022/11/25 06:40:07;;;;;;;36.80;10.95;;;7.60;99.90;;;;;;4998626;28;20045;-68
2022/11/25 06:42:33;;;;;;;34.15;10.50;;;7.50;99.90;;;;;;5008560;28;20046;-69
2022/11/25 06:44:58;;;;;;;36.75;10.52;;;7.50;99.90;;;;;;5002093;28;20058;-71
2022/11/25 06:47:24;;;;;;;33.90;10.25;;;7.60;99.90;;;;;;4996738;28;21119;-72
2022/11/25 06:49:50;;;;;;;29.55;10.43;;;7.60;99.90;;;;;;5005149;28;20173;-71
2022/11/25 06:52:15;;;;;;;28.42;10.23;;;7.50;99.90;;;;;;5004855;28;20042;-73
2022/11/25 06:54:41;;;;;;;29.08;10.05;;;7.60;99.90;;;;;;4998488;28;20038;-70
2022/11/25 06:57:09;;;;;;;28.42;9.27;;;7.50;99.90;;;;;;5004486;28;20033;-72
2022/11/25 06:59:35;;;;;;;29.92;10.55;;;7.50;99.90;;;;;;4997018;28;20521;-72
2022/11/25 07:02:01;;;;;;;25.50;9.07;;;7.50;99.90;;;;;;5002869;28;20042;-72
2022/11/25 07:04:27;;;;;;;30.55;9.90;;;7.50;99.90;;;;;;5000546;28;20048;-72
2022/11/25 07:06:53;;;;;;;28.23;9.20;;;7.50;99.90;;;;;;4996639;28;20125;-69
2022/11/25 07:09:18;;;;;;;27.92;9.35;;;7.60;99.90;;;;;;4996939;28;20386;-68
2022/11/25 07:11:45;;;;;;;31.00;9.48;;;7.50;99.90;;;;;;4999250;28;20172;-71
2022/11/25 07:14:13;;;;;;;36.25;10.60;;;7.60;99.90;;;;;;5004985;28;20042;-73
2022/11/25 07:16:40;;;;;;;29.80;10.30;;;7.60;99.90;;;;;;5002896;28;20034;-74
2022/11/25 07:19:06;;;;;;;24.75;8.82;;;7.50;99.90;;;;;;5012851;28;20065;-71
2022/11/25 07:21:33;;;;;;;24.30;8.40;;;7.50;99.90;;;;;;5005783;28;20044;-73
2022/11/25 07:24:01;;;;;;;28.20;8.82;;;7.60;99.90;;;;;;5000955;28;20049;-71
2022/11/25 07:26:28;;;;;;;27.05;8.57;;;7.70;99.90;;;;;;5006528;28;20038;-71
2022/11/25 07:29:00;;;;;;;25.20;8.07;;;7.60;99.90;;;;;;5005729;28;20076;-72
2022/11/25 07:31:27;;;;;;;25.50;7.97;;;7.70;99.90;;;;;;5008189;28;20042;-70
2022/11/25 07:33:56;;;;;;;22.45;7.65;;;7.70;99.90;;;;;;5009492;28;20128;-71
2022/11/25 07:36:23;;;;;;;26.02;7.80;;;7.50;99.90;;;;;;5000390;28;20050;-71
2022/11/25 07:38:49;;;;;;;29.90;7.88;;;7.60;99.90;;;;;;5006022;28;20050;-70
2022/11/25 07:41:17;;;;;;;28.55;7.82;;;7.60;99.90;;;;;;5003588;28;20030;-72
2022/11/25 07:43:45;;;;;;;23.60;6.93;;;7.40;99.90;;;;;;5003160;28;20058;-72
2022/11/25 07:46:25;;;;;;;21.00;7.10;;;7.50;99.90;;;;;;5009503;28;20054;-69
2022/11/25 07:48:52;;;;;;;19.00;6.88;;;7.40;99.90;;;;;;5006033;28;20034;-72
2022/11/25 07:51:30;;;;;;;25.08;6.68;;;7.40;99.90;;;;;;5006255;28;20168;-72
2022/11/25 07:53:57;;;;;;;19.60;6.72;;;7.30;99.90;;;;;;5003096;28;20903;-72
2022/11/25 07:56:24;;;;;;;26.05;7.03;;;7.20;99.90;;;;;;5005014;28;20947;-70
2022/11/25 07:58:49;;;;;;;23.23;7.05;;;7.20;99.90;;;;;;5005869;28;20389;-69
2022/11/25 08:01:17;;;;;;;21.45;6.85;;;7.20;99.90;;;;;;5003287;28;20042;-69
2022/11/25 08:03:44;;;;;;;19.75;6.63;;;7.20;99.90;;;;;;4990047;28;20045;-71
2022/11/25 08:06:11;;;;;;;21.45;6.43;;;7.10;99.90;;;;;;5002703;28;20042;-71
2022/11/25 08:08:39;;;;;;;24.55;5.68;;;7.30;99.90;;;;;;5005189;28;20124;-72
2022/11/25 08:11:17;;;;;;;25.35;6.93;;;7.20;99.90;;;;;;5008985;28;20385;-71
2022/11/25 08:13:43;;;;;;;23.90;5.90;;;7.20;99.90;;;;;;5010268;28;20481;-71
2022/11/25 08:16:11;;;;;;;18.65;6.20;;;7.20;99.90;;;;;;5006886;28;20095;-72
2022/11/25 08:18:37;;;;;;;20.35;6.35;;;7.20;99.90;;;;;;4995274;28;20045;-72
2022/11/25 08:21:05;;;;;;;16.15;6.47;;;7.10;99.90;;;;;;5005127;28;20057;-70
2022/11/25 08:23:32;;;;;;;18.45;6.88;;;7.20;99.90;;;;;;5005784;28;20069;-71
2022/11/25 08:26:10;;;;;;;20.65;5.85;;;7.20;99.90;;;;;;4989495;28;20613;-71
2022/11/25 08:28:37;;;;;;;24.45;6.20;;;7.30;99.90;;;;;;5009435;28;20026;-72
2022/11/25 08:31:07;;;;;;;21.45;5.40;;;7.30;99.90;;;;;;4994013;28;20042;-73
2022/11/25 08:33:33;;;;;;;18.02;5.53;;;7.20;99.90;;;;;;4993669;28;20056;-72
2022/11/25 08:35:59;;;;;;;19.00;6.45;;;7.20;99.90;;;;;;5010986;28;20060;-70
2022/11/25 08:38:26;;;;;;;16.50;6.60;;;7.30;99.90;;;;;;5012118;28;20045;-70
2022/11/25 08:40:52;;;;;;;20.80;6.65;;;7.20;99.90;;;;;;4999414;28;20056;-71
2022/11/25 08:43:20;;;;;;;19.05;6.18;;;7.30;99.90;;;;;;5009795;28;20049;-70
2022/11/25 08:45:47;;;;;;;15.80;6.43;;;7.40;99.90;;;;;;5019046;28;20505;-71
2022/11/25 08:48:13;;;;;;;16.45;5.85;;;7.50;99.90;;;;;;5014492;28;20381;-71
2022/11/25 08:50:41;;;;;;;18.48;6.05;;;7.50;99.90;;;;;;5036580;28;20038;-71
2022/11/25 08:53:06;;;;;;;18.42;5.88;;;7.50;99.90;;;;;;5013626;28;20046;-71
2022/11/25 08:55:32;;;;;;;17.10;6.72;;;7.40;99.90;;;;;;5008696;28;20052;-69
2022/11/25 08:57:57;;;;;;;21.27;6.65;;;7.50;99.90;;;;;;5017334;28;20045;-70
2022/11/25 09:00:23;;;;;;;20.38;6.30;;;7.50;99.90;;;;;;5022809;28;20044;-70
2022/11/25 09:02:48;;;;;;;18.27;6.82;;;7.50;99.90;;;;;;5005713;28;20298;-69
2022/11/25 09:05:16;;;;;;;17.95;6.05;;;7.50;99.90;;;;;;5014928;28;20049;-68
2022/11/25 09:07:42;;;;;;;21.17;6.78;;;7.50;99.90;;;;;;5012029;28;20045;-69
2022/11/25 09:10:12;;;;;;;19.75;6.57;;;7.60;99.90;;;;;;5019113;28;20046;-70
2022/11/25 09:12:38;;;;;;;15.93;6.68;;;7.60;99.90;;;;;;5010135;28;20034;-70
2022/11/25 09:15:04;;;;;;;21.17;6.57;;;7.70;99.90;;;;;;5015633;28;20509;-68
2022/11/25 09:17:33;;;;;;;20.67;7.50;;;7.70;99.90;;;;;;5013018;28;20045;-70
2022/11/25 09:19:58;;;;;;;21.88;6.68;;;8.00;99.90;;;;;;5017528;28;20045;-69
2022/11/25 09:22:24;;;;;;;18.42;6.88;;;8.00;99.90;;;;;;5017304;28;20121;-69
2022/11/25 09:24:49;;;;;;;21.27;8.05;;;7.80;99.90;;;;;;5012960;28;20076;-69
2022/11/25 09:27:15;;;;;;;19.83;7.22;;;7.90;99.90;;;;;;5012195;28;20120;-68
2022/11/25 09:29:40;;;;;;;23.67;7.72;;;7.90;99.90;;;;;;5014775;28;20042;-69
2022/11/25 09:32:06;;;;;;;22.65;8.20;;;7.90;99.90;;;;;;5014522;28;20046;-70
2022/11/25 09:34:32;;;;;;;14.27;6.80;;;8.00;99.90;;;;;;5015112;28;20073;-69
2022/11/25 09:36:57;;;;;;;21.83;8.15;;;8.00;99.90;;;;;;5008807;28;20112;-69
2022/11/25 09:39:28;;;;;;;19.67;7.93;;;8.00;99.90;;;;;;5000529;28;20561;-70
2022/11/25 09:48:34;;;;;;;16.40;7.72;;;8.20;99.90;;;;;;5002024;28;20061;-69
2022/11/25 09:51:20;;;;;;;18.15;7.80;;;8.30;99.90;;;;;;5011875;28;20144;-69
2022/11/25 09:53:52;;;;;;;20.38;7.63;;;8.20;99.90;;;;;;5007927;28;20473;-69
2022/11/25 09:56:45;;;;;;;21.50;7.20;;;8.30;99.90;;;;;;4995492;28;20073;-68
2022/11/25 09:59:19;;;;;;;19.55;7.18;;;8.30;99.90;;;;;;5010445;28;20144;-69
2022/11/25 10:02:11;;;;;;;18.33;7.53;;;8.30;99.90;;;;;;5006016;28;20034;-69
2022/11/25 10:04:46;;;;;;;19.05;6.63;;;8.40;99.90;;;;;;5003318;28;20113;-68
2022/11/25 10:07:19;;;;;;;21.30;8.00;;;8.40;99.90;;;;;;5007963;28;20034;-69
2022/11/25 10:09:45;;;;;;;15.82;7.00;;;8.50;99.90;;;;;;5007717;28;20037;-68
2022/11/25 10:12:26;;;;;;;23.85;7.72;;;8.50;99.90;;;;;;5008203;28;20556;-69
2022/11/25 10:15:03;;;;;;;18.55;7.25;;;8.50;99.90;;;;;;5018149;28;20038;-69
2022/11/25 10:17:43;;;;;;;14.27;6.53;;;8.50;99.90;;;;;;5007649;28;20121;-69
2022/11/25 10:20:34;;;;;;;14.07;6.68;;;8.60;99.90;;;;;;4997414;28;20038;-68
2022/11/25 10:23:01;;;;;;;19.13;7.20;;;8.60;99.90;;;;;;5000486;28;20053;-68
2022/11/25 10:25:30;;;;;;;16.40;6.88;;;8.60;99.90;;;;;;4993132;28;20033;-69
2022/11/25 10:28:02;;;;;;;20.77;7.70;;;8.60;99.90;;;;;;5000215;28;20037;-68
2022/11/25 10:30:36;;;;;;;15.82;6.15;;;8.60;99.90;;;;;;5004786;28;20044;-69
2022/11/25 10:33:04;;;;;;;16.20;6.57;;;8.70;99.90;;;;;;4997144;28;20428;-68
2022/11/25 10:35:39;;;;;;;15.98;6.03;;;8.70;99.90;;;;;;5011470;28;20489;-68
2022/11/25 10:38:11;;;;;;;17.50;6.82;;;8.70;99.90;;;;;;4985514;28;20050;-68
2022/11/25 10:40:37;;;;;;;16.67;5.93;;;8.80;99.90;;;;;;4996983;28;20351;-68
2022/11/25 10:43:12;;;;;;;16.48;5.40;;;8.80;99.90;;;;;;4998687;28;20136;-68
2022/11/25 10:45:47;;;;;;;13.43;5.28;;;8.80;99.90;;;;;;5006390;28;20124;-68
2022/11/25 10:48:29;;;;;;;15.20;5.20;;;8.90;99.90;;;;;;4982325;28;20030;-68
2022/11/25 10:51:17;;;;;;;12.45;4.47;;;8.90;99.90;;;;;;5003353;28;20034;-69
2022/11/25 10:54:22;;;;;;;14.27;5.50;;;8.90;99.90;;;;;;5002153;28;20073;-69
2022/11/25 10:56:52;;;;;;;16.23;5.22;;;8.90;99.90;;;;;;5005853;28;20034;-68
2022/11/25 10:59:22;;;;;;;11.02;4.75;;;9.00;99.90;;;;;;5014446;28;20033;-69
2022/11/25 11:01:50;;;;;;;;;;;9.00;99.90;;;;;;5005425;28;20057;-68
2022/11/25 11:04:17;;;;;;;15.75;4.53;;;9.00;99.90;;;;;;5007102;28;19917;-69
2022/11/25 11:06:46;;;;;;;16.63;5.00;;;9.10;99.90;;;;;;4987300;28;20042;-68
2022/11/25 11:09:31;;;;;;;13.93;4.35;;;9.10;99.90;;;;;;5000039;28;20041;-68
2022/11/25 11:12:22;;;;;;;13.98;4.40;;;9.10;99.90;;;;;;5007312;28;20478;-68
2022/11/25 11:14:48;;;;;;;;;;;9.20;99.90;;;;;;5006519;28;20040;-68
2022/11/25 11:17:33;;;;;;;8.93;4.13;;;9.20;99.90;;;;;;5006955;28;19917;-68
2022/11/25 11:20:08;;;;;;;15.23;4.28;;;9.20;99.90;;;;;;5009275;28;20041;-69
2022/11/25 11:22:35;;;;;;;9.18;3.90;;;9.20;99.90;;;;;;5009709;28;20414;-68
2022/11/25 11:25:20;;;;;;;12.30;4.10;;;9.20;99.90;;;;;;5008419;28;20377;-69
2022/11/25 11:27:46;;;;;;;9.93;3.60;;;9.30;99.90;;;;;;5006905;28;20049;-67
2022/11/25 11:30:16;;;;;;;21.73;4.30;;;9.20;99.90;;;;;;5008985;28;20113;-68
2022/11/25 11:32:53;;;;;;;11.57;3.75;;;9.30;99.90;;;;;;5011077;28;20041;-68
2022/11/25 11:35:41;;;;;;;13.82;4.00;;;9.40;99.90;;;;;;5007989;28;20042;-69
2022/11/25 11:38:25;;;;;;;10.98;3.38;;;9.40;99.90;;;;;;5006624;28;20056;-67
2022/11/25 11:40:59;;;;;;;14.15;3.90;;;9.40;99.90;;;;;;5009212;28;20041;-68
2022/11/25 11:43:28;;;;;;;9.10;3.28;;;9.50;99.90;;;;;;5006747;28;20429;-68
2022/11/25 11:45:56;;;;;;;18.85;4.13;;;9.50;99.90;;;;;;5007834;28;20041;-67
2022/11/25 11:48:28;;;;;;;15.40;3.80;;;9.60;99.90;;;;;;5009743;28;20042;-67
2022/11/25 11:51:14;;;;;;;11.25;3.83;;;9.60;99.90;;;;;;5007465;28;20052;-68
2022/11/25 11:53:57;;;;;;;12.32;3.50;;;9.50;99.90;;;;;;5009349;28;20052;-68
2022/11/25 11:56:28;;;;;;;16.33;3.50;;;9.50;99.90;;;;;;5006342;28;20049;-68
2022/11/25 11:59:05;;;;;;;;;;;9.50;99.90;;;;;;5005720;28;20070;-67
2022/11/25 12:01:42;;;;;;;14.90;3.30;;;9.60;99.90;;;;;;5008388;28;19928;-68
2022/11/25 12:04:34;;;;;;;14.50;3.53;;;9.60;99.90;;;;;;5005540;28;20132;-67
2022/11/25 12:07:22;;;;;;;14.30;3.33;;;9.60;99.90;;;;;;5009477;28;20046;-67
2022/11/25 12:10:14;;;;;;;11.38;2.47;;;9.60;99.90;;;;;;5006502;28;20033;-67
2022/11/25 12:12:50;;;;;;;12.05;2.78;;;9.60;99.90;;;;;;5001027;28;20108;-68
2022/11/25 12:15:44;;;;;;;9.00;2.20;;;9.50;99.90;;;;;;5005987;28;20069;-66
2022/11/25 12:18:34;;;;;;;9.10;2.58;;;9.50;99.90;;;;;;5007742;28;20165;-67
2022/11/25 12:21:04;;;;;;;18.02;3.08;;;9.50;99.90;;;;;;5004704;28;20369;-67
2022/11/25 12:23:38;;;;;;;13.38;3.22;;;9.50;99.90;;;;;;5009336;28;20358;-65
2022/11/25 12:26:12;;;;;;;11.82;2.67;;;9.60;99.90;;;;;;4999161;28;20426;-67
2022/11/25 12:28:44;;;;;;;12.30;2.30;;;9.50;99.90;;;;;;4997160;28;20035;-66
2022/11/25 12:31:17;;;;;;;14.90;2.58;;;9.60;99.90;;;;;;5005173;28;20046;-67
2022/11/25 12:33:43;;;;;;;8.68;2.65;;;9.60;99.90;;;;;;5007728;28;20091;-65
2022/11/25 12:36:14;;;;;;;14.05;2.90;;;9.60;99.90;;;;;;4996563;28;20058;-66
2022/11/25 12:39:10;;;;;;;13.65;2.40;;;9.60;99.90;;;;;;4987523;28;20057;-66
2022/11/25 12:41:40;;;;;;;16.67;3.42;;;9.60;99.90;;;;;;5005698;28;20034;-66
2022/11/25 12:44:30;;;;;;;16.83;2.77;;;9.60;99.90;;;;;;5020391;28;20045;-68
2022/11/25 12:46:56;;;;;;;;;;;9.70;99.90;;;;;;5004860;28;20288;-66
2022/11/25 12:49:25;;;;;;;11.77;2.60;;;9.70;99.90;;;;;;5008131;28;20012;-67
2022/11/25 12:52:02;;;;;;;10.93;2.45;;;9.60;99.90;;;;;;5008352;28;20034;-67
2022/11/25 12:54:46;;;;;;;13.18;3.22;;;9.50;99.90;;;;;;4996122;28;21668;-66
2022/11/25 12:57:34;;;;;;;8.02;2.67;;;9.50;99.90;;;;;;4989603;28;20033;-65
2022/11/25 13:00:08;;;;;;;14.48;3.53;;;9.50;99.90;;;;;;4999931;28;20059;-66
2022/11/25 13:02:34;;;;;;;32.05;4.97;;;9.50;99.90;;;;;;4988974;28;20050;-68
2022/11/25 13:05:29;;;;;;;22.63;4.13;;;9.50;99.90;;;;;;5001182;28;20473;-67
2022/11/25 13:08:32;;;;;;;9.40;2.88;;;9.60;99.90;;;;;;4997702;28;20046;-66
2022/11/25 13:11:00;;;;;;;18.65;3.28;;;9.60;99.90;;;;;;5004532;28;20126;-66
2022/11/25 13:14:00;;;;;;;14.35;2.75;;;9.60;99.90;;;;;;5005663;28;20052;-66